sensor_id;sensor_type;location;lat;lon;timestamp;P1;durP1;ratioP1;P2;durP2;ratioP2
69569;SDS011;56781;42.292;23.146;2023-12-14T00:00:06;30.67;;;14.70;;
69569;SDS011;56781;42.292;23.146;2023-12-14T00:02:36;37.17;;;17.33;;
69569;SDS011;56781;42.292;23.146;2023-12-14T00:05:06;55.25;;;24.95;;
69569;SDS011;56781;42.292;23.146;2023-12-14T00:07:35;48.75;;;20.75;;
69569;SDS011;56781;42.292;23.146;2023-12-14T00:10:07;67.13;;;25.63;;
69569;SDS011;56781;42.292;23.146;2023-12-14T00:12:36;50.17;;;19.85;;
69569;SDS011;56781;42.292;23.146;2023-12-14T00:15:05;58.97;;;32.57;;
69569;SDS011;56781;42.292;23.146;2023-12-14T00:17:35;38.53;;;21.17;;
69569;SDS011;56781;42.292;23.146;2023-12-14T00:20:04;32.33;;;16.10;;
69569;SDS011;56781;42.292;23.146;2023-12-14T00:22:35;48.45;;;21.10;;
69569;SDS011;56781;42.292;23.146;2023-12-14T00:25:04;34.28;;;16.20;;
69569;SDS011;56781;42.292;23.146;2023-12-14T00:27:35;29.67;;;12.47;;
69569;SDS011;56781;42.292;23.146;2023-12-14T00:30:05;25.27;;;12.20;;
69569;SDS011;56781;42.292;23.146;2023-12-14T00:32:34;33.40;;;13.77;;
69569;SDS011;56781;42.292;23.146;2023-12-14T00:35:10;27.88;;;11.77;;
69569;SDS011;56781;42.292;23.146;2023-12-14T00:37:39;27.00;;;12.10;;
69569;SDS011;56781;42.292;23.146;2023-12-14T00:40:10;22.93;;;11.13;;
69569;SDS011;56781;42.292;23.146;2023-12-14T00:42:39;21.13;;;10.02;;
69569;SDS011;56781;42.292;23.146;2023-12-14T00:45:09;36.70;;;21.73;;
69569;SDS011;56781;42.292;23.146;2023-12-14T00:47:38;20.63;;;10.30;;
69569;SDS011;56781;42.292;23.146;2023-12-14T00:50:07;17.25;;;8.40;;
69569;SDS011;56781;42.292;23.146;2023-12-14T00:52:37;17.67;;;8.40;;
69569;SDS011;56781;42.292;23.146;2023-12-14T00:55:06;46.25;;;17.45;;
69569;SDS011;56781;42.292;23.146;2023-12-14T00:57:36;50.33;;;23.00;;
69569;SDS011;56781;42.292;23.146;2023-12-14T01:00:06;41.65;;;20.13;;
69569;SDS011;56781;42.292;23.146;2023-12-14T01:02:37;35.88;;;17.33;;
69569;SDS011;56781;42.292;23.146;2023-12-14T01:05:07;32.20;;;14.27;;
69569;SDS011;56781;42.292;23.146;2023-12-14T01:07:36;28.83;;;11.55;;
69569;SDS011;56781;42.292;23.146;2023-12-14T01:10:05;24.83;;;11.85;;
69569;SDS011;56781;42.292;23.146;2023-12-14T01:12:36;24.23;;;12.20;;
69569;SDS011;56781;42.292;23.146;2023-12-14T01:15:06;40.00;;;16.42;;
69569;SDS011;56781;42.292;23.146;2023-12-14T01:17:35;39.60;;;15.67;;
69569;SDS011;56781;42.292;23.146;2023-12-14T01:20:05;27.58;;;11.60;;
69569;SDS011;56781;42.292;23.146;2023-12-14T01:22:35;39.25;;;20.30;;
69569;SDS011;56781;42.292;23.146;2023-12-14T01:25:04;30.40;;;15.00;;
69569;SDS011;56781;42.292;23.146;2023-12-14T01:27:33;22.42;;;10.15;;
69569;SDS011;56781;42.292;23.146;2023-12-14T01:30:04;20.97;;;8.87;;
69569;SDS011;56781;42.292;23.146;2023-12-14T01:32:34;26.15;;;12.98;;
69569;SDS011;56781;42.292;23.146;2023-12-14T01:35:04;29.02;;;12.20;;
69569;SDS011;56781;42.292;23.146;2023-12-14T01:37:33;28.95;;;11.60;;
69569;SDS011;56781;42.292;23.146;2023-12-14T01:40:02;32.47;;;13.98;;
69569;SDS011;56781;42.292;23.146;2023-12-14T01:42:31;38.57;;;14.23;;
69569;SDS011;56781;42.292;23.146;2023-12-14T01:45:01;38.30;;;14.93;;
69569;SDS011;56781;42.292;23.146;2023-12-14T01:47:32;36.13;;;14.98;;
69569;SDS011;56781;42.292;23.146;2023-12-14T01:50:01;36.08;;;16.20;;
69569;SDS011;56781;42.292;23.146;2023-12-14T01:52:30;24.88;;;11.98;;
69569;SDS011;56781;42.292;23.146;2023-12-14T01:54:59;33.87;;;16.17;;
69569;SDS011;56781;42.292;23.146;2023-12-14T01:57:29;39.47;;;18.75;;
69569;SDS011;56781;42.292;23.146;2023-12-14T01:59:58;48.72;;;23.80;;
69569;SDS011;56781;42.292;23.146;2023-12-14T02:02:27;37.45;;;21.55;;
69569;SDS011;56781;42.292;23.146;2023-12-14T02:04:57;33.83;;;17.88;;
69569;SDS011;56781;42.292;23.146;2023-12-14T02:07:26;31.83;;;13.60;;
69569;SDS011;56781;42.292;23.146;2023-12-14T02:09:55;34.00;;;16.77;;
69569;SDS011;56781;42.292;23.146;2023-12-14T02:12:24;43.35;;;23.88;;
69569;SDS011;56781;42.292;23.146;2023-12-14T02:14:55;42.25;;;17.10;;
69569;SDS011;56781;42.292;23.146;2023-12-14T02:17:24;37.88;;;19.60;;
69569;SDS011;56781;42.292;23.146;2023-12-14T02:19:53;25.33;;;11.03;;
69569;SDS011;56781;42.292;23.146;2023-12-14T02:22:24;30.02;;;12.63;;
69569;SDS011;56781;42.292;23.146;2023-12-14T02:24:55;18.25;;;9.20;;
69569;SDS011;56781;42.292;23.146;2023-12-14T02:27:24;21.63;;;10.13;;
69569;SDS011;56781;42.292;23.146;2023-12-14T02:29:53;24.08;;;11.25;;
69569;SDS011;56781;42.292;23.146;2023-12-14T02:32:21;20.97;;;9.77;;
69569;SDS011;56781;42.292;23.146;2023-12-14T02:34:52;39.38;;;20.20;;
69569;SDS011;56781;42.292;23.146;2023-12-14T02:37:21;75.90;;;32.10;;
69569;SDS011;56781;42.292;23.146;2023-12-14T02:39:49;43.17;;;17.23;;
69569;SDS011;56781;42.292;23.146;2023-12-14T02:42:20;49.70;;;19.50;;
69569;SDS011;56781;42.292;23.146;2023-12-14T02:44:49;60.13;;;22.03;;
69569;SDS011;56781;42.292;23.146;2023-12-14T02:47:18;56.35;;;23.70;;
69569;SDS011;56781;42.292;23.146;2023-12-14T02:49:47;40.13;;;18.40;;
69569;SDS011;56781;42.292;23.146;2023-12-14T02:52:16;38.60;;;16.85;;
69569;SDS011;56781;42.292;23.146;2023-12-14T02:54:45;32.13;;;13.82;;
69569;SDS011;56781;42.292;23.146;2023-12-14T02:57:14;30.53;;;13.93;;
69569;SDS011;56781;42.292;23.146;2023-12-14T02:59:44;28.85;;;12.52;;
69569;SDS011;56781;42.292;23.146;2023-12-14T03:02:13;27.88;;;12.82;;
69569;SDS011;56781;42.292;23.146;2023-12-14T03:04:42;32.58;;;14.95;;
69569;SDS011;56781;42.292;23.146;2023-12-14T03:07:11;30.95;;;13.90;;
69569;SDS011;56781;42.292;23.146;2023-12-14T03:09:40;34.00;;;15.30;;
69569;SDS011;56781;42.292;23.146;2023-12-14T03:12:11;44.28;;;19.63;;
69569;SDS011;56781;42.292;23.146;2023-12-14T03:14:40;38.95;;;15.93;;
69569;SDS011;56781;42.292;23.146;2023-12-14T03:17:10;85.70;;;38.35;;
69569;SDS011;56781;42.292;23.146;2023-12-14T03:19:40;46.95;;;28.25;;
69569;SDS011;56781;42.292;23.146;2023-12-14T03:22:08;98.93;;;30.93;;
69569;SDS011;56781;42.292;23.146;2023-12-14T03:24:37;67.00;;;24.50;;
69569;SDS011;56781;42.292;23.146;2023-12-14T03:27:07;58.35;;;23.77;;
69569;SDS011;56781;42.292;23.146;2023-12-14T03:29:36;50.85;;;22.08;;
69569;SDS011;56781;42.292;23.146;2023-12-14T03:32:04;39.92;;;18.80;;
69569;SDS011;56781;42.292;23.146;2023-12-14T03:34:37;38.57;;;17.50;;
69569;SDS011;56781;42.292;23.146;2023-12-14T03:37:06;31.85;;;13.65;;
69569;SDS011;56781;42.292;23.146;2023-12-14T03:39:34;34.42;;;13.80;;
69569;SDS011;56781;42.292;23.146;2023-12-14T03:42:04;31.88;;;13.32;;
69569;SDS011;56781;42.292;23.146;2023-12-14T03:44:32;30.63;;;12.98;;
69569;SDS011;56781;42.292;23.146;2023-12-14T03:47:02;31.73;;;16.37;;
69569;SDS011;56781;42.292;23.146;2023-12-14T03:49:31;46.03;;;20.58;;
69569;SDS011;56781;42.292;23.146;2023-12-14T03:52:06;58.17;;;23.58;;
69569;SDS011;56781;42.292;23.146;2023-12-14T03:54:36;53.80;;;23.05;;
69569;SDS011;56781;42.292;23.146;2023-12-14T03:57:05;85.22;;;34.75;;
69569;SDS011;56781;42.292;23.146;2023-12-14T03:59:34;49.47;;;21.60;;
69569;SDS011;56781;42.292;23.146;2023-12-14T04:02:07;42.83;;;20.73;;
69569;SDS011;56781;42.292;23.146;2023-12-14T04:04:38;45.17;;;20.02;;
69569;SDS011;56781;42.292;23.146;2023-12-14T04:07:08;58.80;;;21.70;;
69569;SDS011;56781;42.292;23.146;2023-12-14T04:09:37;45.25;;;17.17;;
69569;SDS011;56781;42.292;23.146;2023-12-14T04:12:06;37.37;;;15.60;;
69569;SDS011;56781;42.292;23.146;2023-12-14T04:14:35;37.20;;;12.50;;
69569;SDS011;56781;42.292;23.146;2023-12-14T04:17:04;34.72;;;14.30;;
69569;SDS011;56781;42.292;23.146;2023-12-14T04:19:32;49.60;;;17.02;;
69569;SDS011;56781;42.292;23.146;2023-12-14T04:22:03;43.85;;;17.63;;
69569;SDS011;56781;42.292;23.146;2023-12-14T04:24:32;51.23;;;21.17;;
69569;SDS011;56781;42.292;23.146;2023-12-14T04:27:01;34.15;;;14.48;;
69569;SDS011;56781;42.292;23.146;2023-12-14T04:29:30;19.45;;;9.05;;
69569;SDS011;56781;42.292;23.146;2023-12-14T04:31:59;21.10;;;8.38;;
69569;SDS011;56781;42.292;23.146;2023-12-14T04:34:28;43.90;;;15.35;;
69569;SDS011;56781;42.292;23.146;2023-12-14T04:36:57;34.57;;;14.50;;
69569;SDS011;56781;42.292;23.146;2023-12-14T04:39:28;26.80;;;10.50;;
69569;SDS011;56781;42.292;23.146;2023-12-14T04:41:57;33.83;;;15.40;;
69569;SDS011;56781;42.292;23.146;2023-12-14T04:44:26;32.50;;;13.43;;
69569;SDS011;56781;42.292;23.146;2023-12-14T04:46:55;53.05;;;21.92;;
69569;SDS011;56781;42.292;23.146;2023-12-14T04:49:24;32.50;;;15.67;;
69569;SDS011;56781;42.292;23.146;2023-12-14T04:51:53;30.30;;;13.68;;
69569;SDS011;56781;42.292;23.146;2023-12-14T04:54:21;44.25;;;21.38;;
69569;SDS011;56781;42.292;23.146;2023-12-14T04:56:52;28.67;;;14.27;;
69569;SDS011;56781;42.292;23.146;2023-12-14T04:59:21;19.00;;;9.13;;
69569;SDS011;56781;42.292;23.146;2023-12-14T05:01:51;36.87;;;16.93;;
69569;SDS011;56781;42.292;23.146;2023-12-14T05:04:20;22.40;;;12.18;;
69569;SDS011;56781;42.292;23.146;2023-12-14T05:06:49;27.00;;;14.43;;
69569;SDS011;56781;42.292;23.146;2023-12-14T05:09:18;22.02;;;11.77;;
69569;SDS011;56781;42.292;23.146;2023-12-14T05:11:47;23.90;;;12.30;;
69569;SDS011;56781;42.292;23.146;2023-12-14T05:14:18;27.50;;;14.00;;
69569;SDS011;56781;42.292;23.146;2023-12-14T05:16:47;36.75;;;17.40;;
69569;SDS011;56781;42.292;23.146;2023-12-14T05:19:16;23.88;;;10.90;;
69569;SDS011;56781;42.292;23.146;2023-12-14T05:21:45;19.15;;;8.27;;
69569;SDS011;56781;42.292;23.146;2023-12-14T05:24:14;40.38;;;19.15;;
69569;SDS011;56781;42.292;23.146;2023-12-14T05:26:43;19.33;;;8.97;;
69569;SDS011;56781;42.292;23.146;2023-12-14T05:29:13;12.52;;;6.35;;
69569;SDS011;56781;42.292;23.146;2023-12-14T05:31:43;17.75;;;7.35;;
69569;SDS011;56781;42.292;23.146;2023-12-14T05:34:12;22.45;;;10.95;;
69569;SDS011;56781;42.292;23.146;2023-12-14T05:36:43;28.65;;;12.40;;
69569;SDS011;56781;42.292;23.146;2023-12-14T05:39:12;29.17;;;15.00;;
69569;SDS011;56781;42.292;23.146;2023-12-14T05:41:41;30.23;;;15.77;;
69569;SDS011;56781;42.292;23.146;2023-12-14T05:44:10;30.50;;;13.90;;
69569;SDS011;56781;42.292;23.146;2023-12-14T05:46:40;51.03;;;22.45;;
69569;SDS011;56781;42.292;23.146;2023-12-14T05:49:10;60.67;;;27.05;;
69569;SDS011;56781;42.292;23.146;2023-12-14T05:51:39;67.00;;;30.20;;
69569;SDS011;56781;42.292;23.146;2023-12-14T05:54:08;57.13;;;27.05;;
69569;SDS011;56781;42.292;23.146;2023-12-14T05:56:37;61.53;;;26.65;;
69569;SDS011;56781;42.292;23.146;2023-12-14T05:59:06;74.68;;;29.92;;
69569;SDS011;56781;42.292;23.146;2023-12-14T06:01:34;99.55;;;35.22;;
69569;SDS011;56781;42.292;23.146;2023-12-14T06:04:03;81.50;;;37.30;;
69569;SDS011;56781;42.292;23.146;2023-12-14T06:06:34;70.43;;;35.63;;
69569;SDS011;56781;42.292;23.146;2023-12-14T06:09:03;71.75;;;29.73;;
69569;SDS011;56781;42.292;23.146;2023-12-14T06:11:33;48.45;;;23.48;;
69569;SDS011;56781;42.292;23.146;2023-12-14T06:14:03;68.15;;;32.42;;
69569;SDS011;56781;42.292;23.146;2023-12-14T06:16:32;59.83;;;27.17;;
69569;SDS011;56781;42.292;23.146;2023-12-14T06:19:01;65.30;;;31.35;;
69569;SDS011;56781;42.292;23.146;2023-12-14T06:21:30;71.95;;;32.67;;
69569;SDS011;56781;42.292;23.146;2023-12-14T06:24:02;132.73;;;49.92;;
69569;SDS011;56781;42.292;23.146;2023-12-14T06:26:31;89.95;;;36.03;;
69569;SDS011;56781;42.292;23.146;2023-12-14T06:29:00;58.30;;;23.03;;
69569;SDS011;56781;42.292;23.146;2023-12-14T06:31:29;56.00;;;23.17;;
69569;SDS011;56781;42.292;23.146;2023-12-14T06:33:58;51.83;;;23.00;;
69569;SDS011;56781;42.292;23.146;2023-12-14T06:36:30;64.90;;;27.70;;
69569;SDS011;56781;42.292;23.146;2023-12-14T06:38:59;127.15;;;49.35;;
69569;SDS011;56781;42.292;23.146;2023-12-14T06:41:31;110.03;;;45.40;;
69569;SDS011;56781;42.292;23.146;2023-12-14T06:43:59;95.13;;;38.40;;
69569;SDS011;56781;42.292;23.146;2023-12-14T06:46:28;87.90;;;36.83;;
69569;SDS011;56781;42.292;23.146;2023-12-14T06:48:57;117.13;;;48.90;;
69569;SDS011;56781;42.292;23.146;2023-12-14T06:51:26;124.00;;;54.25;;
69569;SDS011;56781;42.292;23.146;2023-12-14T06:53:55;229.20;;;108.00;;
69569;SDS011;56781;42.292;23.146;2023-12-14T06:56:24;189.00;;;88.45;;
69569;SDS011;56781;42.292;23.146;2023-12-14T06:58:54;205.10;;;80.38;;
69569;SDS011;56781;42.292;23.146;2023-12-14T07:01:23;125.80;;;50.15;;
69569;SDS011;56781;42.292;23.146;2023-12-14T07:03:52;94.68;;;38.70;;
69569;SDS011;56781;42.292;23.146;2023-12-14T07:06:21;80.97;;;36.17;;
69569;SDS011;56781;42.292;23.146;2023-12-14T07:08:50;113.18;;;47.78;;
69569;SDS011;56781;42.292;23.146;2023-12-14T07:11:19;175.82;;;72.85;;
69569;SDS011;56781;42.292;23.146;2023-12-14T07:13:48;147.88;;;62.15;;
69569;SDS011;56781;42.292;23.146;2023-12-14T07:16:20;131.00;;;57.97;;
69569;SDS011;56781;42.292;23.146;2023-12-14T07:18:49;118.33;;;51.33;;
69569;SDS011;56781;42.292;23.146;2023-12-14T07:21:18;90.32;;;34.20;;
69569;SDS011;56781;42.292;23.146;2023-12-14T07:23:46;148.27;;;55.63;;
69569;SDS011;56781;42.292;23.146;2023-12-14T07:26:15;132.57;;;54.42;;
69569;SDS011;56781;42.292;23.146;2023-12-14T07:28:44;112.45;;;45.15;;
69569;SDS011;56781;42.292;23.146;2023-12-14T07:31:13;143.80;;;61.03;;
69569;SDS011;56781;42.292;23.146;2023-12-14T07:33:43;114.63;;;47.95;;
69569;SDS011;56781;42.292;23.146;2023-12-14T07:36:13;95.43;;;40.15;;
69569;SDS011;56781;42.292;23.146;2023-12-14T07:38:42;89.70;;;40.58;;
69569;SDS011;56781;42.292;23.146;2023-12-14T07:41:11;86.97;;;38.92;;
69569;SDS011;56781;42.292;23.146;2023-12-14T07:43:40;84.40;;;36.87;;
69569;SDS011;56781;42.292;23.146;2023-12-14T07:46:08;82.65;;;37.40;;
69569;SDS011;56781;42.292;23.146;2023-12-14T07:48:37;89.35;;;41.58;;
69569;SDS011;56781;42.292;23.146;2023-12-14T07:51:08;69.43;;;31.33;;
69569;SDS011;56781;42.292;23.146;2023-12-14T07:53:36;62.58;;;29.77;;
69569;SDS011;56781;42.292;23.146;2023-12-14T07:56:05;40.53;;;18.97;;
69569;SDS011;56781;42.292;23.146;2023-12-14T07:58:35;43.55;;;21.27;;
69569;SDS011;56781;42.292;23.146;2023-12-14T08:01:04;79.95;;;33.40;;
69569;SDS011;56781;42.292;23.146;2023-12-14T08:03:33;55.60;;;23.63;;
69569;SDS011;56781;42.292;23.146;2023-12-14T08:06:02;52.72;;;23.35;;
69569;SDS011;56781;42.292;23.146;2023-12-14T08:08:32;73.20;;;34.90;;
69569;SDS011;56781;42.292;23.146;2023-12-14T08:11:01;148.45;;;61.58;;
69569;SDS011;56781;42.292;23.146;2023-12-14T08:13:30;113.82;;;47.55;;
69569;SDS011;56781;42.292;23.146;2023-12-14T08:15:58;85.80;;;38.15;;
69569;SDS011;56781;42.292;23.146;2023-12-14T08:18:27;93.70;;;42.03;;
69569;SDS011;56781;42.292;23.146;2023-12-14T08:20:56;79.67;;;35.20;;
69569;SDS011;56781;42.292;23.146;2023-12-14T08:23:25;41.35;;;19.58;;
69569;SDS011;56781;42.292;23.146;2023-12-14T08:25:56;27.52;;;14.20;;
69569;SDS011;56781;42.292;23.146;2023-12-14T08:28:25;37.03;;;18.92;;
69569;SDS011;56781;42.292;23.146;2023-12-14T08:30:54;26.05;;;13.15;;
69569;SDS011;56781;42.292;23.146;2023-12-14T08:33:25;25.03;;;13.30;;
69569;SDS011;56781;42.292;23.146;2023-12-14T08:35:53;17.50;;;6.90;;
69569;SDS011;56781;42.292;23.146;2023-12-14T08:38:22;20.83;;;13.00;;
69569;SDS011;56781;42.292;23.146;2023-12-14T08:40:51;15.45;;;7.25;;
69569;SDS011;56781;42.292;23.146;2023-12-14T08:43:21;13.98;;;6.78;;
69569;SDS011;56781;42.292;23.146;2023-12-14T08:45:50;14.70;;;6.03;;
69569;SDS011;56781;42.292;23.146;2023-12-14T08:48:19;15.00;;;5.78;;
69569;SDS011;56781;42.292;23.146;2023-12-14T08:50:47;14.00;;;6.00;;
69569;SDS011;56781;42.292;23.146;2023-12-14T08:53:16;12.32;;;6.75;;
69569;SDS011;56781;42.292;23.146;2023-12-14T08:55:45;14.55;;;6.50;;
69569;SDS011;56781;42.292;23.146;2023-12-14T08:58:14;19.17;;;7.80;;
69569;SDS011;56781;42.292;23.146;2023-12-14T09:00:44;18.00;;;8.75;;
69569;SDS011;56781;42.292;23.146;2023-12-14T09:03:13;18.20;;;7.47;;
69569;SDS011;56781;42.292;23.146;2023-12-14T09:05:42;20.45;;;7.80;;
69569;SDS011;56781;42.292;23.146;2023-12-14T09:08:12;15.70;;;8.50;;
69569;SDS011;56781;42.292;23.146;2023-12-14T09:10:40;18.40;;;7.23;;
69569;SDS011;56781;42.292;23.146;2023-12-14T09:13:09;17.75;;;7.20;;
69569;SDS011;56781;42.292;23.146;2023-12-14T09:15:38;42.50;;;15.85;;
69569;SDS011;56781;42.292;23.146;2023-12-14T09:18:08;36.38;;;13.85;;
69569;SDS011;56781;42.292;23.146;2023-12-14T09:20:37;23.35;;;10.30;;
69569;SDS011;56781;42.292;23.146;2023-12-14T09:23:07;35.63;;;15.30;;
69569;SDS011;56781;42.292;23.146;2023-12-14T09:25:36;28.23;;;13.23;;
69569;SDS011;56781;42.292;23.146;2023-12-14T09:28:05;27.83;;;11.43;;
69569;SDS011;56781;42.292;23.146;2023-12-14T09:30:33;26.00;;;10.73;;
69569;SDS011;56781;42.292;23.146;2023-12-14T09:33:02;14.93;;;7.43;;
69569;SDS011;56781;42.292;23.146;2023-12-14T09:35:34;45.73;;;23.77;;
69569;SDS011;56781;42.292;23.146;2023-12-14T09:38:03;22.08;;;12.05;;
69569;SDS011;56781;42.292;23.146;2023-12-14T09:40:32;32.22;;;13.88;;
69569;SDS011;56781;42.292;23.146;2023-12-14T09:43:01;19.77;;;9.57;;
69569;SDS011;56781;42.292;23.146;2023-12-14T09:45:33;28.55;;;14.38;;
69569;SDS011;56781;42.292;23.146;2023-12-14T09:48:03;13.60;;;7.20;;
69569;SDS011;56781;42.292;23.146;2023-12-14T09:50:34;18.83;;;9.20;;
69569;SDS011;56781;42.292;23.146;2023-12-14T09:53:06;15.52;;;8.10;;
69569;SDS011;56781;42.292;23.146;2023-12-14T09:55:35;11.20;;;5.70;;
69569;SDS011;56781;42.292;23.146;2023-12-14T09:58:04;12.18;;;5.05;;
69569;SDS011;56781;42.292;23.146;2023-12-14T10:00:33;15.47;;;6.47;;
69569;SDS011;56781;42.292;23.146;2023-12-14T10:05:58;15.77;;;7.03;;
69569;SDS011;56781;42.292;23.146;2023-12-14T10:08:29;15.38;;;5.97;;
69569;SDS011;56781;42.292;23.146;2023-12-14T10:10:57;12.95;;;5.70;;
69569;SDS011;56781;42.292;23.146;2023-12-14T10:13:37;16.97;;;9.43;;
69569;SDS011;56781;42.292;23.146;2023-12-14T10:16:07;11.80;;;6.40;;
69569;SDS011;56781;42.292;23.146;2023-12-14T10:18:35;13.15;;;6.45;;
69569;SDS011;56781;42.292;23.146;2023-12-14T10:21:07;17.35;;;7.72;;
69569;SDS011;56781;42.292;23.146;2023-12-14T10:23:36;18.95;;;9.18;;
69569;SDS011;56781;42.292;23.146;2023-12-14T10:26:05;18.83;;;8.30;;
69569;SDS011;56781;42.292;23.146;2023-12-14T10:28:34;35.10;;;17.38;;
69569;SDS011;56781;42.292;23.146;2023-12-14T10:31:03;24.63;;;13.00;;
69569;SDS011;56781;42.292;23.146;2023-12-14T10:33:32;20.52;;;10.30;;
69569;SDS011;56781;42.292;23.146;2023-12-14T10:36:01;24.20;;;11.73;;
69569;SDS011;56781;42.292;23.146;2023-12-14T10:38:32;17.70;;;9.47;;
69569;SDS011;56781;42.292;23.146;2023-12-14T10:41:05;19.42;;;12.45;;
69569;SDS011;56781;42.292;23.146;2023-12-14T10:43:36;23.52;;;12.27;;
69569;SDS011;56781;42.292;23.146;2023-12-14T10:46:14;17.50;;;9.88;;
69569;SDS011;56781;42.292;23.146;2023-12-14T10:48:43;17.30;;;10.10;;
69569;SDS011;56781;42.292;23.146;2023-12-14T10:51:13;17.13;;;11.43;;
69569;SDS011;56781;42.292;23.146;2023-12-14T10:53:44;57.80;;;30.35;;
69569;SDS011;56781;42.292;23.146;2023-12-14T10:56:15;21.45;;;8.57;;
69569;SDS011;56781;42.292;23.146;2023-12-14T10:58:45;24.70;;;11.48;;
69569;SDS011;56781;42.292;23.146;2023-12-14T11:01:15;19.33;;;9.15;;
69569;SDS011;56781;42.292;23.146;2023-12-14T11:03:44;23.83;;;11.63;;
69569;SDS011;56781;42.292;23.146;2023-12-14T11:06:21;23.23;;;11.82;;
69569;SDS011;56781;42.292;23.146;2023-12-14T11:09:00;23.83;;;12.45;;
69569;SDS011;56781;42.292;23.146;2023-12-14T11:11:42;30.77;;;17.45;;
69569;SDS011;56781;42.292;23.146;2023-12-14T11:14:24;28.55;;;14.13;;
69569;SDS011;56781;42.292;23.146;2023-12-14T11:16:54;25.87;;;14.90;;
69569;SDS011;56781;42.292;23.146;2023-12-14T11:19:25;26.05;;;12.02;;
69569;SDS011;56781;42.292;23.146;2023-12-14T11:22:11;18.20;;;7.80;;
69569;SDS011;56781;42.292;23.146;2023-12-14T11:24:46;9.80;;;4.13;;
69569;SDS011;56781;42.292;23.146;2023-12-14T11:27:20;11.88;;;5.15;;
69569;SDS011;56781;42.292;23.146;2023-12-14T11:29:54;43.67;;;22.53;;
69569;SDS011;56781;42.292;23.146;2023-12-14T11:32:24;33.08;;;18.45;;
69569;SDS011;56781;42.292;23.146;2023-12-14T11:34:55;36.47;;;16.80;;
69569;SDS011;56781;42.292;23.146;2023-12-14T11:37:24;29.00;;;14.35;;
69569;SDS011;56781;42.292;23.146;2023-12-14T11:39:56;33.03;;;17.20;;
69569;SDS011;56781;42.292;23.146;2023-12-14T11:42:24;57.83;;;29.97;;
69569;SDS011;56781;42.292;23.146;2023-12-14T11:44:58;34.90;;;15.70;;
69569;SDS011;56781;42.292;23.146;2023-12-14T11:47:27;36.10;;;15.35;;
69569;SDS011;56781;42.292;23.146;2023-12-14T11:49:56;38.78;;;15.20;;
69569;SDS011;56781;42.292;23.146;2023-12-14T11:52:24;44.30;;;21.83;;
69569;SDS011;56781;42.292;23.146;2023-12-14T11:54:53;25.30;;;14.50;;
69569;SDS011;56781;42.292;23.146;2023-12-14T11:57:27;28.70;;;14.73;;
69569;SDS011;56781;42.292;23.146;2023-12-14T11:59:57;21.75;;;10.05;;
69569;SDS011;56781;42.292;23.146;2023-12-14T12:02:27;19.42;;;8.55;;
69569;SDS011;56781;42.292;23.146;2023-12-14T12:04:56;18.70;;;8.27;;
69569;SDS011;56781;42.292;23.146;2023-12-14T12:07:25;21.27;;;8.43;;
69569;SDS011;56781;42.292;23.146;2023-12-14T12:09:53;23.02;;;8.95;;
69569;SDS011;56781;42.292;23.146;2023-12-14T12:12:23;28.02;;;8.98;;
69569;SDS011;56781;42.292;23.146;2023-12-14T12:14:52;29.58;;;11.73;;
69569;SDS011;56781;42.292;23.146;2023-12-14T12:17:21;42.70;;;18.55;;
69569;SDS011;56781;42.292;23.146;2023-12-14T12:19:49;34.57;;;16.57;;
69569;SDS011;56781;42.292;23.146;2023-12-14T12:22:18;37.05;;;19.13;;
69569;SDS011;56781;42.292;23.146;2023-12-14T12:24:47;46.63;;;22.60;;
69569;SDS011;56781;42.292;23.146;2023-12-14T12:27:25;89.75;;;40.05;;
69569;SDS011;56781;42.292;23.146;2023-12-14T12:29:53;78.90;;;34.85;;
69569;SDS011;56781;42.292;23.146;2023-12-14T12:32:22;82.40;;;33.23;;
69569;SDS011;56781;42.292;23.146;2023-12-14T12:34:51;82.22;;;33.83;;
69569;SDS011;56781;42.292;23.146;2023-12-14T12:37:19;77.72;;;35.15;;
69569;SDS011;56781;42.292;23.146;2023-12-14T12:39:49;77.32;;;34.70;;
69569;SDS011;56781;42.292;23.146;2023-12-14T12:42:18;67.18;;;33.70;;
69569;SDS011;56781;42.292;23.146;2023-12-14T12:44:50;82.07;;;38.40;;
69569;SDS011;56781;42.292;23.146;2023-12-14T12:47:19;87.47;;;39.00;;
69569;SDS011;56781;42.292;23.146;2023-12-14T12:49:48;97.38;;;44.28;;
69569;SDS011;56781;42.292;23.146;2023-12-14T12:52:16;62.72;;;33.08;;
69569;SDS011;56781;42.292;23.146;2023-12-14T12:54:45;29.60;;;13.85;;
69569;SDS011;56781;42.292;23.146;2023-12-14T12:57:14;30.43;;;16.13;;
69569;SDS011;56781;42.292;23.146;2023-12-14T12:59:43;39.92;;;19.65;;
69569;SDS011;56781;42.292;23.146;2023-12-14T13:02:13;37.38;;;14.75;;
69569;SDS011;56781;42.292;23.146;2023-12-14T13:04:42;25.10;;;8.60;;
69569;SDS011;56781;42.292;23.146;2023-12-14T13:07:11;9.27;;;3.42;;
69569;SDS011;56781;42.292;23.146;2023-12-14T13:09:41;18.10;;;6.33;;
69569;SDS011;56781;42.292;23.146;2023-12-14T13:12:09;5.63;;;2.13;;
69569;SDS011;56781;42.292;23.146;2023-12-14T13:14:38;13.68;;;3.70;;
69569;SDS011;56781;42.292;23.146;2023-12-14T13:17:08;6.25;;;2.45;;
69569;SDS011;56781;42.292;23.146;2023-12-14T13:19:39;6.13;;;2.25;;
69569;SDS011;56781;42.292;23.146;2023-12-14T13:22:06;7.37;;;2.73;;
69569;SDS011;56781;42.292;23.146;2023-12-14T13:24:37;8.73;;;2.75;;
69569;SDS011;56781;42.292;23.146;2023-12-14T13:27:06;4.18;;;1.55;;
69569;SDS011;56781;42.292;23.146;2023-12-14T13:29:35;6.22;;;1.10;;
69569;SDS011;56781;42.292;23.146;2023-12-14T13:32:04;7.38;;;1.45;;
69569;SDS011;56781;42.292;23.146;2023-12-14T13:34:33;6.60;;;2.57;;
69569;SDS011;56781;42.292;23.146;2023-12-14T13:37:03;8.43;;;2.50;;
69569;SDS011;56781;42.292;23.146;2023-12-14T13:39:32;3.35;;;1.00;;
69569;SDS011;56781;42.292;23.146;2023-12-14T13:42:04;2.78;;;1.10;;
69569;SDS011;56781;42.292;23.146;2023-12-14T13:44:33;3.25;;;0.90;;
69569;SDS011;56781;42.292;23.146;2023-12-14T13:47:02;3.40;;;1.20;;
69569;SDS011;56781;42.292;23.146;2023-12-14T13:49:31;6.32;;;3.03;;
69569;SDS011;56781;42.292;23.146;2023-12-14T13:52:03;3.88;;;1.23;;
69569;SDS011;56781;42.292;23.146;2023-12-14T13:54:32;2.25;;;0.98;;
69569;SDS011;56781;42.292;23.146;2023-12-14T13:57:03;6.57;;;1.15;;
69569;SDS011;56781;42.292;23.146;2023-12-14T13:59:32;1.57;;;0.60;;
69569;SDS011;56781;42.292;23.146;2023-12-14T14:02:01;1.65;;;0.50;;
69569;SDS011;56781;42.292;23.146;2023-12-14T14:04:30;3.55;;;0.70;;
69569;SDS011;56781;42.292;23.146;2023-12-14T14:07:00;4.65;;;1.38;;
69569;SDS011;56781;42.292;23.146;2023-12-14T14:09:30;1.80;;;0.50;;
69569;SDS011;56781;42.292;23.146;2023-12-14T14:11:59;3.93;;;0.87;;
69569;SDS011;56781;42.292;23.146;2023-12-14T14:14:28;1.70;;;0.60;;
69569;SDS011;56781;42.292;23.146;2023-12-14T14:16:57;2.47;;;0.70;;
69569;SDS011;56781;42.292;23.146;2023-12-14T14:19:25;1.80;;;0.68;;
69569;SDS011;56781;42.292;23.146;2023-12-14T14:21:54;3.75;;;1.15;;
69569;SDS011;56781;42.292;23.146;2023-12-14T14:24:22;4.30;;;1.00;;
69569;SDS011;56781;42.292;23.146;2023-12-14T14:26:53;2.53;;;0.90;;
69569;SDS011;56781;42.292;23.146;2023-12-14T14:29:21;1.65;;;0.50;;